createdAt,value
2022-08-28T00:00:18.771Z,4.13
2022-08-28T00:03:05.714Z,3.97
2022-08-28T00:05:33.911Z,4.45
2022-08-28T00:08:01.325Z,4.22
2022-08-28T00:10:28.890Z,4.93
2022-08-28T00:12:57.638Z,5.10
2022-08-28T00:15:31.729Z,5.30
2022-08-28T00:18:00.078Z,4.68
2022-08-28T00:20:28.498Z,5.22
2022-08-28T00:22:55.958Z,4.85
2022-08-28T00:25:25.447Z,5.28
2022-08-28T00:27:57.554Z,5.10
2022-08-28T00:30:28.248Z,5.30
2022-08-28T00:33:06.074Z,5.45
2022-08-28T00:35:33.538Z,5.13
2022-08-28T00:38:00.923Z,4.68
2022-08-28T00:40:33.839Z,5.00
2022-08-28T00:43:06.025Z,5.50
2022-08-28T00:45:39.266Z,5.68
2022-08-28T00:48:07.191Z,5.55
2022-08-28T00:50:56.756Z,5.32
2022-08-28T00:53:29.961Z,5.78
2022-08-28T00:56:04.078Z,5.35
2022-08-28T00:58:37.348Z,5.88
2022-08-28T01:01:05.131Z,5.82
2022-08-28T01:03:32.032Z,5.55
2022-08-28T01:05:59.393Z,5.50
2022-08-28T01:08:26.398Z,5.57
2022-08-28T01:11:01.479Z,5.10
2022-08-28T01:13:29.604Z,5.78
2022-08-28T01:15:58.379Z,5.63
2022-08-28T01:18:30.614Z,6.03
2022-08-28T01:21:10.168Z,5.75
2022-08-28T01:23:56.977Z,5.68
2022-08-28T01:26:28.435Z,5.95
2022-08-28T01:28:58.419Z,5.03
2022-08-28T01:31:27.507Z,5.70
2022-08-28T01:33:55.193Z,6.00
2022-08-28T01:36:22.276Z,5.95
2022-08-28T01:38:53.305Z,6.15
2022-08-28T01:41:23.027Z,6.03
2022-08-28T01:43:50.028Z,5.82
2022-08-28T01:46:17.465Z,6.20
2022-08-28T01:48:44.733Z,6.82
2022-08-28T01:51:12.995Z,6.78
2022-08-28T01:53:43.353Z,6.38
2022-08-28T01:56:16.385Z,6.53
2022-08-28T01:58:44.172Z,6.15
2022-08-28T02:01:13.355Z,5.85
2022-08-28T02:03:45.582Z,5.90
2022-08-28T02:06:17.973Z,5.00
2022-08-28T02:08:47.013Z,5.68
2022-08-28T02:11:19.642Z,5.05
2022-08-28T02:13:46.722Z,5.22
2022-08-28T02:16:18.150Z,4.80
2022-08-28T02:18:45.117Z,4.85
2022-08-28T02:21:15.199Z,4.57
2022-08-28T02:23:44.339Z,4.80
2022-08-28T02:26:12.819Z,4.90
2022-08-28T02:28:41.272Z,4.55
2022-08-28T02:31:09.492Z,4.20
2022-08-28T02:33:41.403Z,4.18
2022-08-28T02:36:10.793Z,5.30
2022-08-28T02:38:38.486Z,4.35
2022-08-28T02:41:06.822Z,4.72
2022-08-28T02:43:34.731Z,5.13
2022-08-28T02:46:05.165Z,4.50
2022-08-28T02:48:34.969Z,4.70
2022-08-28T02:51:05.923Z,4.50
2022-08-28T02:53:32.958Z,4.72
2022-08-28T02:56:01.905Z,4.60
2022-08-28T02:58:32.904Z,4.88
2022-08-28T03:01:01.798Z,4.60
2022-08-28T03:03:33.318Z,4.80
2022-08-28T03:06:02.042Z,5.20
2022-08-28T03:08:30.290Z,4.65
2022-08-28T03:10:57.453Z,4.78
2022-08-28T03:13:27.109Z,5.03
2022-08-28T03:15:55.675Z,5.32
2022-08-28T03:18:25.254Z,5.18
2022-08-28T03:20:53.517Z,5.85
2022-08-28T03:23:26.421Z,5.68
2022-08-28T03:25:54.086Z,5.88
2022-08-28T03:28:21.193Z,6.40
2022-08-28T03:30:50.990Z,7.00
2022-08-28T03:33:19.458Z,6.85
2022-08-28T03:35:46.580Z,6.60
2022-08-28T03:38:13.881Z,6.78
2022-08-28T03:40:45.655Z,6.60
2022-08-28T03:43:15.236Z,6.75
2022-08-28T03:45:52.191Z,6.50
2022-08-28T03:48:21.681Z,6.93
2022-08-28T03:50:49.043Z,6.80
2022-08-28T03:53:18.390Z,6.45
2022-08-28T03:55:45.547Z,6.35
2022-08-28T03:58:18.787Z,6.57
2022-08-28T04:00:46.793Z,5.53
2022-08-28T04:03:14.169Z,6.32
2022-08-28T04:05:42.337Z,6.50
2022-08-28T04:08:10.464Z,6.20
2022-08-28T04:10:38.306Z,6.55
2022-08-28T04:13:05.230Z,6.15
2022-08-28T04:15:32.405Z,6.47
2022-08-28T04:18:00.431Z,6.68
2022-08-28T04:20:28.364Z,6.45
2022-08-28T04:22:55.927Z,6.65
2022-08-28T04:25:23.866Z,6.78
2022-08-28T04:27:57.504Z,6.28
2022-08-28T04:30:24.765Z,7.15
2022-08-28T04:32:51.634Z,6.82
2022-08-28T04:35:18.666Z,6.25
2022-08-28T04:37:46.223Z,6.60
2022-08-28T04:40:14.940Z,7.07
2022-08-28T04:42:42.591Z,6.68
2022-08-28T04:45:10.081Z,6.78
2022-08-28T04:47:38.920Z,6.80
2022-08-28T04:50:07.586Z,6.97
2022-08-28T04:52:34.850Z,6.25
2022-08-28T04:55:01.948Z,7.30
2022-08-28T04:57:35.712Z,6.40
2022-08-28T05:00:06.455Z,6.78
2022-08-28T05:02:33.558Z,7.00
2022-08-28T05:05:00.548Z,6.80
2022-08-28T05:07:27.810Z,7.07
2022-08-28T05:09:57.023Z,7.18
2022-08-28T05:12:24.145Z,7.65
2022-08-28T05:14:51.545Z,7.18
2022-08-28T05:17:20.736Z,7.50
2022-08-28T05:19:48.335Z,7.55
2022-08-28T05:22:17.680Z,7.40
2022-08-28T05:24:44.633Z,7.32
2022-08-28T05:27:11.687Z,7.45
2022-08-28T05:29:38.821Z,7.38
2022-08-28T05:32:09.425Z,7.10
2022-08-28T05:34:36.428Z,7.35
2022-08-28T05:37:08.873Z,7.07
2022-08-28T05:39:36.044Z,7.43
2022-08-28T05:42:03.117Z,6.55
2022-08-28T05:44:33.056Z,6.72
2022-08-28T05:47:00.185Z,7.75
2022-08-28T05:49:28.489Z,7.57
2022-08-28T05:51:55.729Z,7.35
2022-08-28T05:54:22.960Z,7.78
2022-08-28T05:56:49.931Z,6.60
2022-08-28T05:59:17.583Z,7.22
2022-08-28T06:01:50.453Z,6.55
2022-08-28T06:04:23.111Z,6.43
2022-08-28T06:06:50.675Z,6.22
2022-08-28T06:09:28.777Z,6.30
2022-08-28T06:11:59.116Z,5.68
2022-08-28T06:14:27.024Z,6.15
2022-08-28T06:16:55.775Z,6.13
2022-08-28T06:19:24.884Z,5.97
2022-08-28T06:21:57.356Z,6.25
2022-08-28T06:24:26.396Z,5.97
2022-08-28T06:26:56.542Z,6.60
2022-08-28T06:29:27.441Z,5.50
2022-08-28T06:31:57.947Z,6.35
2022-08-28T06:34:25.833Z,7.35
2022-08-28T06:36:54.373Z,6.68
2022-08-28T06:39:24.107Z,6.88
2022-08-28T06:41:51.269Z,6.20
2022-08-28T06:44:20.655Z,6.38
2022-08-28T06:46:49.624Z,6.50
2022-08-28T06:49:16.743Z,6.82
2022-08-28T06:51:44.075Z,6.25
2022-08-28T06:54:11.114Z,6.95
2022-08-28T06:56:38.984Z,6.18
2022-08-28T06:59:06.123Z,6.03
2022-08-28T07:01:35.573Z,6.95
2022-08-28T07:04:09.910Z,5.90
2022-08-28T07:06:40.986Z,6.55
2022-08-28T07:09:11.431Z,5.70
2022-08-28T07:11:39.733Z,6.05
2022-08-28T07:14:07.543Z,6.10
2022-08-28T07:16:38.609Z,5.75
2022-08-28T07:19:13.198Z,5.78
2022-08-28T07:21:43.701Z,6.32
2022-08-28T07:24:13.432Z,5.70
2022-08-28T07:26:41.913Z,6.03
2022-08-28T07:29:09.936Z,5.18
2022-08-28T07:31:41.518Z,5.57
2022-08-28T07:34:10.548Z,5.72
2022-08-28T07:36:38.976Z,5.75
2022-08-28T07:39:07.775Z,6.22
2022-08-28T07:41:39.347Z,6.05
2022-08-28T07:44:26.867Z,5.82
2022-08-28T07:46:56.181Z,6.15
2022-08-28T07:49:31.453Z,5.53
2022-08-28T07:52:01.657Z,6.00
2022-08-28T07:54:28.606Z,5.80
2022-08-28T07:56:55.644Z,5.88
2022-08-28T07:59:23.148Z,5.97
2022-08-28T08:01:52.435Z,5.70
2022-08-28T08:04:21.678Z,6.40
2022-08-28T08:06:54.388Z,6.47
2022-08-28T08:09:28.532Z,6.97
2022-08-28T08:11:57.837Z,7.10
2022-08-28T08:14:28.689Z,6.07
2022-08-28T08:16:56.099Z,6.85
2022-08-28T08:19:23.791Z,7.20
2022-08-28T08:21:55.086Z,7.28
2022-08-28T08:24:26.807Z,6.97
2022-08-28T08:27:00.622Z,7.45
2022-08-28T08:29:35.824Z,7.35
2022-08-28T08:32:08.108Z,8.30
2022-08-28T08:34:41.567Z,8.13
2022-08-28T08:37:09.451Z,8.43
2022-08-28T08:39:38.203Z,8.23
2022-08-28T08:42:10.638Z,8.27
2022-08-28T08:44:44.002Z,8.70
2022-08-28T08:47:30.878Z,8.38
2022-08-28T08:50:07.261Z,8.45
2022-08-28T08:52:43.364Z,9.20
2022-08-28T08:55:14.977Z,7.85
2022-08-28T08:57:46.195Z,8.45
2022-08-28T09:00:18.697Z,8.13
2022-08-28T09:02:55.950Z,8.43
2022-08-28T09:05:50.908Z,9.57
2022-08-28T09:08:49.743Z,8.57
2022-08-28T09:11:57.287Z,7.90
2022-08-28T09:15:08.998Z,8.65
2022-08-28T09:18:08.492Z,8.60
2022-08-28T09:20:35.583Z,7.95
2022-08-28T09:23:12.724Z,7.90
2022-08-28T09:25:53.243Z,7.80
2022-08-28T09:28:26.121Z,7.50
2022-08-28T09:31:04.390Z,7.00
2022-08-28T09:33:37.426Z,6.47
2022-08-28T09:36:35.172Z,6.50
2022-08-28T09:39:29.337Z,6.80
2022-08-28T09:42:39.901Z,6.35
2022-08-28T09:45:14.045Z,7.28
2022-08-28T09:47:47.089Z,7.32
2022-08-28T09:50:22.694Z,7.10
2022-08-28T09:52:51.648Z,6.68
2022-08-28T09:55:27.658Z,6.88
2022-08-28T09:57:54.912Z,6.28
2022-08-28T10:00:23.011Z,6.30
2022-08-28T10:03:08.555Z,6.60
2022-08-28T10:08:45.585Z,5.65
2022-08-28T10:11:25.867Z,5.97
2022-08-28T10:14:38.291Z,5.82
2022-08-28T10:17:31.594Z,5.80
2022-08-28T10:20:07.804Z,6.35
2022-08-28T10:22:49.833Z,4.88
2022-08-28T10:25:43.461Z,3.95
2022-08-28T10:28:46.800Z,3.58
2022-08-28T10:31:56.733Z,4.22
2022-08-28T10:34:34.567Z,5.18
2022-08-28T10:37:08.005Z,6.28
2022-08-28T10:39:59.065Z,6.53
2022-08-28T10:42:38.561Z,6.32
2022-08-28T10:45:17.756Z,6.85
2022-08-28T10:47:52.259Z,6.43
2022-08-28T10:50:23.797Z,5.87
2022-08-28T10:53:03.405Z,5.78
2022-08-28T10:55:43.969Z,5.82
2022-08-28T10:58:21.524Z,5.95
2022-08-28T11:01:02.533Z,5.95
2022-08-28T11:03:37.930Z,5.22
2022-08-28T11:06:14.427Z,5.28
2022-08-28T11:08:42.233Z,5.72
2022-08-28T11:11:17.653Z,5.90
2022-08-28T11:13:54.587Z,5.30
2022-08-28T11:16:28.268Z,5.88
2022-08-28T11:19:15.848Z,5.90
2022-08-28T11:21:59.881Z,5.38
2022-08-28T11:25:02.427Z,5.20
2022-08-28T11:27:37.717Z,4.75
2022-08-28T11:30:11.824Z,4.55
2022-08-28T11:32:39.064Z,4.80
2022-08-28T11:35:37.759Z,4.82
2022-08-28T11:38:05.626Z,4.63
2022-08-28T11:40:32.745Z,5.18
2022-08-28T11:43:16.534Z,4.82
2022-08-28T11:45:48.154Z,5.20
2022-08-28T11:48:34.056Z,5.55
2022-08-28T11:51:07.143Z,5.75
2022-08-28T11:53:53.950Z,5.60
2022-08-28T11:56:41.170Z,6.38
2022-08-28T11:59:39.191Z,6.13
2022-08-28T12:02:40.987Z,5.72
2022-08-28T12:05:17.221Z,6.32
2022-08-28T12:07:51.028Z,5.85
2022-08-28T12:10:27.871Z,5.85
2022-08-28T12:12:57.903Z,5.30
2022-08-28T12:15:27.963Z,5.50
2022-08-28T12:18:11.897Z,5.30
2022-08-28T12:20:51.295Z,5.57
2022-08-28T12:23:25.758Z,5.65
2022-08-28T12:26:05.713Z,5.20
2022-08-28T12:28:56.093Z,4.57
2022-08-28T12:31:53.911Z,4.50
2022-08-28T12:34:26.902Z,4.10
2022-08-28T12:37:05.649Z,4.03
2022-08-28T12:39:34.258Z,4.13
2022-08-28T12:42:03.924Z,4.43
2022-08-28T12:44:33.886Z,4.40
2022-08-28T12:47:01.399Z,4.50
2022-08-28T12:49:37.973Z,4.93
2022-08-28T12:52:16.957Z,4.90
2022-08-28T12:54:49.622Z,4.88
2022-08-28T12:57:27.376Z,5.10
2022-08-28T13:00:06.645Z,5.15
2022-08-28T13:02:34.747Z,5.07
2022-08-28T13:05:06.421Z,5.00
2022-08-28T13:08:02.005Z,4.80
2022-08-28T13:10:29.899Z,5.03
2022-08-28T13:13:10.743Z,5.10
2022-08-28T13:15:55.415Z,5.22
2022-08-28T13:18:44.878Z,5.57
2022-08-28T13:21:32.943Z,4.55
2022-08-28T13:24:21.820Z,5.32
2022-08-28T13:27:12.228Z,4.75
2022-08-28T13:30:16.720Z,4.85
2022-08-28T13:32:56.336Z,4.82
2022-08-28T13:35:23.640Z,5.32
2022-08-28T13:37:54.152Z,4.63
2022-08-28T13:40:55.896Z,5.03
2022-08-28T13:43:11.939Z,4.93
2022-08-28T13:45:44.357Z,4.75
2022-08-28T13:48:18.664Z,5.07
2022-08-28T13:50:51.571Z,5.53
2022-08-28T13:53:20.368Z,5.63
2022-08-28T13:55:51.026Z,5.68
2022-08-28T13:58:18.438Z,5.25
2022-08-28T14:00:48.515Z,5.53
2022-08-28T14:03:34.704Z,5.63
2022-08-28T14:06:03.910Z,5.38
2022-08-28T14:08:31.161Z,5.50
2022-08-28T14:10:58.918Z,5.45
2022-08-28T14:13:27.824Z,5.75
2022-08-28T14:15:58.561Z,5.38
2022-08-28T14:18:28.469Z,5.45
2022-08-28T14:20:55.729Z,6.35
2022-08-28T14:23:23.177Z,5.88
2022-08-28T14:25:50.951Z,6.47
2022-08-28T14:28:21.288Z,5.95
2022-08-28T14:30:50.759Z,6.28
2022-08-28T14:33:20.778Z,5.53
2022-08-28T14:35:49.494Z,6.47
2022-08-28T14:38:17.272Z,6.10
2022-08-28T14:40:45.689Z,6.20
2022-08-28T14:43:14.993Z,6.32
2022-08-28T14:45:47.445Z,6.70
2022-08-28T14:48:17.329Z,6.10
2022-08-28T14:50:47.755Z,6.57
2022-08-28T14:53:16.086Z,6.22
2022-08-28T14:55:45.548Z,6.50
2022-08-28T14:58:13.552Z,6.70
2022-08-28T15:00:46.217Z,6.38
2022-08-28T15:03:16.924Z,6.70
2022-08-28T15:05:45.117Z,6.55
2022-08-28T15:08:17.558Z,6.25
2022-08-28T15:10:45.058Z,6.28
2022-08-28T15:13:12.988Z,6.45
2022-08-28T15:15:44.941Z,5.82
2022-08-28T15:18:12.596Z,6.25
2022-08-28T15:20:45.267Z,6.13
2022-08-28T15:23:14.682Z,5.95
2022-08-28T15:25:42.672Z,6.03
2022-08-28T15:28:10.024Z,5.50
2022-08-28T15:30:38.373Z,5.10
2022-08-28T15:33:06.798Z,5.30
2022-08-28T15:35:35.682Z,5.50
2022-08-28T15:38:03.626Z,5.25
2022-08-28T15:40:49.948Z,6.07
2022-08-28T15:43:17.438Z,5.65
2022-08-28T15:45:45.017Z,5.35
2022-08-28T15:48:13.352Z,5.80
2022-08-28T15:50:41.949Z,6.18
2022-08-28T15:53:12.435Z,5.35
2022-08-28T15:55:39.969Z,5.57
2022-08-28T15:58:14.126Z,4.38
2022-08-28T16:00:42.271Z,4.25
2022-08-28T16:03:12.332Z,3.70
2022-08-28T16:05:40.877Z,3.92
2022-08-28T16:08:10.480Z,3.80
2022-08-28T16:10:38.361Z,4.22
2022-08-28T16:13:06.795Z,3.92
2022-08-28T16:15:34.451Z,3.90
2022-08-28T16:18:02.133Z,3.45
2022-08-28T16:20:29.218Z,3.28
2022-08-28T16:22:56.335Z,4.05
2022-08-28T16:25:23.545Z,3.70
2022-08-28T16:27:50.965Z,4.00
2022-08-28T16:30:18.643Z,4.15
2022-08-28T16:32:50.724Z,4.18
2022-08-28T16:35:18.671Z,4.35
2022-08-28T16:37:48.388Z,4.10
2022-08-28T16:40:15.753Z,3.83
2022-08-28T16:42:51.965Z,3.70
2022-08-28T16:45:19.697Z,3.25
2022-08-28T16:47:50.007Z,3.38
2022-08-28T16:50:17.680Z,3.60
2022-08-28T16:52:46.699Z,3.42
2022-08-28T16:55:16.482Z,3.70
2022-08-28T16:57:44.150Z,3.95
2022-08-28T17:00:13.595Z,4.20
2022-08-28T17:02:42.369Z,3.90
2022-08-28T17:05:12.269Z,3.38
2022-08-28T17:07:39.942Z,3.00
2022-08-28T17:10:12.167Z,3.60
2022-08-28T17:12:41.923Z,3.35
2022-08-28T17:15:11.411Z,3.80
2022-08-28T17:17:39.061Z,3.42
2022-08-28T17:20:07.915Z,3.40
2022-08-28T17:22:37.326Z,3.63
2022-08-28T17:25:13.914Z,3.53
2022-08-28T17:27:41.636Z,3.40
2022-08-28T17:30:10.059Z,3.45
2022-08-28T17:32:37.401Z,3.63
2022-08-28T17:35:05.644Z,4.10
2022-08-28T17:37:36.558Z,3.95
2022-08-28T17:40:13.978Z,4.13
2022-08-28T17:42:46.303Z,4.20
2022-08-28T17:45:17.621Z,4.22
2022-08-28T17:47:44.929Z,4.78
2022-08-28T17:50:12.793Z,4.13
2022-08-28T17:52:40.687Z,4.15
2022-08-28T17:55:08.378Z,4.53
2022-08-28T17:57:35.911Z,4.57
2022-08-28T18:00:07.204Z,5.30
2022-08-28T18:02:42.290Z,4.82
2022-08-28T18:05:12.320Z,4.88
2022-08-28T18:07:41.976Z,4.78
2022-08-28T18:10:12.039Z,5.07
2022-08-28T18:12:41.288Z,5.60
2022-08-28T18:15:13.210Z,4.80
2022-08-28T18:17:42.252Z,5.20
2022-08-28T18:20:11.921Z,5.30
2022-08-28T18:22:39.363Z,5.63
2022-08-28T18:25:29.814Z,5.35
2022-08-28T18:27:59.704Z,5.00
2022-08-28T18:30:27.705Z,5.63
2022-08-28T18:32:58.545Z,4.80
2022-08-28T18:35:31.830Z,5.35
2022-08-28T18:38:00.410Z,5.50
2022-08-28T18:40:28.430Z,4.90
2022-08-28T18:42:56.180Z,5.50
2022-08-28T18:45:23.845Z,5.03
2022-08-28T18:47:51.515Z,5.22
2022-08-28T18:50:22.453Z,5.25
2022-08-28T18:52:52.008Z,5.72
2022-08-28T18:55:21.545Z,5.18
2022-08-28T18:57:51.452Z,5.20
2022-08-28T19:00:21.278Z,5.50
2022-08-28T19:02:49.785Z,5.13
2022-08-28T19:05:21.859Z,5.97
2022-08-28T19:07:49.950Z,5.07
2022-08-28T19:10:32.853Z,4.72
2022-08-28T19:13:02.352Z,4.80
2022-08-28T19:15:31.129Z,4.97
2022-08-28T19:18:01.109Z,4.65
2022-08-28T19:20:29.698Z,4.78
2022-08-28T19:22:58.426Z,4.80
2022-08-28T19:25:29.508Z,5.03
2022-08-28T19:28:02.290Z,4.82
2022-08-28T19:30:35.387Z,4.53
2022-08-28T19:33:04.662Z,4.68
2022-08-28T19:35:34.065Z,4.60
2022-08-28T19:38:01.966Z,4.70
2022-08-28T19:40:29.696Z,4.70
2022-08-28T19:42:58.215Z,4.80
2022-08-28T19:45:28.634Z,4.40
2022-08-28T19:47:59.930Z,4.70
2022-08-28T19:50:30.106Z,5.18
2022-08-28T19:52:57.995Z,4.75
2022-08-28T19:55:28.061Z,4.43
2022-08-28T19:57:57.076Z,5.30
2022-08-28T20:00:29.911Z,5.20
2022-08-28T20:02:58.100Z,4.97
2022-08-28T20:05:26.412Z,4.82
2022-08-28T20:07:53.997Z,5.18
2022-08-28T20:10:22.119Z,4.55
2022-08-28T20:12:49.503Z,4.57
2022-08-28T20:15:19.387Z,4.55
2022-08-28T20:17:49.776Z,4.65
2022-08-28T20:20:20.166Z,5.20
2022-08-28T20:22:49.329Z,4.80
2022-08-28T20:25:22.286Z,5.15
2022-08-28T20:27:50.971Z,4.88
2022-08-28T20:30:18.437Z,5.72
2022-08-28T20:32:48.548Z,5.22
2022-08-28T20:35:17.348Z,4.90
2022-08-28T20:37:49.326Z,4.85
2022-08-28T20:40:22.015Z,5.65
2022-08-28T20:42:50.199Z,5.25
2022-08-28T20:45:18.858Z,5.38
2022-08-28T20:47:46.632Z,5.88
2022-08-28T20:50:15.639Z,5.45
2022-08-28T20:52:43.730Z,5.57
2022-08-28T20:55:13.116Z,5.50
2022-08-28T20:57:40.773Z,5.40
2022-08-28T21:00:10.830Z,5.90
2022-08-28T21:02:38.583Z,5.20
2022-08-28T21:05:09.890Z,5.80
2022-08-28T21:07:37.148Z,5.82
2022-08-28T21:10:07.946Z,5.57
2022-08-28T21:12:40.502Z,5.45
2022-08-28T21:15:11.053Z,5.57
2022-08-28T21:17:40.129Z,5.35
2022-08-28T21:20:14.214Z,5.55
2022-08-28T21:22:42.093Z,6.13
2022-08-28T21:25:11.206Z,5.75
2022-08-28T21:27:39.542Z,5.82
2022-08-28T21:30:11.658Z,5.65
2022-08-28T21:32:42.174Z,5.88
2022-08-28T21:35:12.044Z,5.53
2022-08-28T21:37:42.410Z,5.38
2022-08-28T21:40:12.655Z,5.68
2022-08-28T21:42:41.670Z,6.00
2022-08-28T21:45:12.000Z,6.13
2022-08-28T21:47:42.496Z,6.13
2022-08-28T21:50:10.988Z,6.57
2022-08-28T21:52:40.081Z,6.45
2022-08-28T21:55:11.472Z,6.05
2022-08-28T21:57:41.188Z,6.20
2022-08-28T22:00:19.772Z,6.13
2022-08-28T22:02:48.189Z,6.05
2022-08-28T22:05:16.538Z,6.30
2022-08-28T22:07:45.337Z,5.38
2022-08-28T22:10:12.854Z,6.05
2022-08-28T22:12:42.332Z,5.63
2022-08-28T22:15:09.827Z,6.18
2022-08-28T22:17:37.368Z,6.32
2022-08-28T22:20:05.130Z,6.18
2022-08-28T22:22:50.839Z,6.40
2022-08-28T22:27:46.280Z,6.25
2022-08-28T22:30:13.611Z,6.10
2022-08-28T22:32:46.258Z,6.75
2022-08-28T22:35:13.405Z,6.30
2022-08-28T22:37:40.515Z,6.05
2022-08-28T22:40:09.533Z,5.88
2022-08-28T22:42:40.640Z,5.95
2022-08-28T22:45:08.470Z,5.70
2022-08-28T22:47:36.449Z,6.25
2022-08-28T22:50:04.854Z,6.20
2022-08-28T22:52:32.656Z,6.85
2022-08-28T22:54:59.890Z,6.50
2022-08-28T22:57:29.621Z,6.20
2022-08-28T23:00:01.589Z,6.95
2022-08-28T23:02:29.008Z,5.80
2022-08-28T23:04:56.363Z,6.20
2022-08-28T23:07:23.616Z,6.35
2022-08-28T23:09:51.363Z,6.43
2022-08-28T23:12:18.447Z,6.75
2022-08-28T23:14:48.649Z,6.95
2022-08-28T23:17:21.090Z,6.70
2022-08-28T23:19:48.557Z,7.10
2022-08-28T23:22:18.156Z,7.15
2022-08-28T23:24:47.219Z,7.10
2022-08-28T23:27:35.257Z,7.32
2022-08-28T23:30:06.241Z,7.55
2022-08-28T23:32:35.599Z,7.22
2022-08-28T23:35:07.006Z,7.03
2022-08-28T23:37:36.779Z,6.53
2022-08-28T23:40:08.555Z,7.18
2022-08-28T23:42:36.462Z,7.30
2022-08-28T23:45:05.168Z,7.60
2022-08-28T23:47:32.497Z,7.18
2022-08-28T23:50:02.726Z,7.78
2022-08-28T23:52:32.198Z,7.05
2022-08-28T23:55:02.561Z,6.93
2022-08-28T23:57:31.174Z,7.07
